createdAt,value
2022-11-30T00:09:42.664Z,16.07
2022-11-30T00:19:44.589Z,16.03
2022-11-30T00:29:46.062Z,16.02
2022-11-30T00:39:47.471Z,15.99
2022-11-30T00:49:48.918Z,15.97
2022-11-30T00:59:50.452Z,15.96
2022-11-30T01:09:51.912Z,15.93
2022-11-30T01:19:53.295Z,15.89
2022-11-30T01:29:54.857Z,15.88
2022-11-30T01:39:56.311Z,15.83
2022-11-30T01:50:10.321Z,15.85
2022-11-30T02:00:13.195Z,15.82
2022-11-30T02:10:16.949Z,15.79
2022-11-30T02:20:35.225Z,15.76
2022-11-30T02:30:37.644Z,15.75
2022-11-30T02:40:39.198Z,15.73
2022-11-30T02:50:51.916Z,15.74
2022-11-30T03:00:53.350Z,15.71
2022-11-30T03:10:54.734Z,15.72
2022-11-30T03:20:56.269Z,15.73
2022-11-30T03:30:57.737Z,15.73
2022-11-30T03:41:00.948Z,15.72
2022-11-30T03:51:02.931Z,15.73
2022-11-30T04:01:09.481Z,15.70
2022-11-30T04:11:11.547Z,15.72
2022-11-30T04:21:12.928Z,15.70
2022-11-30T04:31:14.383Z,15.70
2022-11-30T04:41:15.768Z,15.66
2022-11-30T04:51:17.135Z,15.65
2022-11-30T05:01:18.522Z,15.62
2022-11-30T05:11:20.060Z,15.64
2022-11-30T05:21:21.438Z,15.81
2022-11-30T05:31:22.870Z,16.06
2022-11-30T05:41:24.308Z,16.26
2022-11-30T05:51:26.164Z,16.51
2022-11-30T06:01:28.222Z,16.75
2022-11-30T06:11:29.619Z,16.92
2022-11-30T06:21:31.004Z,17.05
2022-11-30T06:31:32.521Z,17.19
2022-11-30T06:41:34.079Z,17.31
2022-11-30T06:51:37.301Z,17.41
2022-11-30T07:01:38.748Z,17.54
2022-11-30T07:11:40.234Z,17.61
2022-11-30T07:21:41.607Z,17.69
2022-11-30T07:31:43.138Z,17.75
2022-11-30T07:41:44.802Z,17.82
2022-11-30T07:51:46.167Z,17.90
2022-11-30T08:01:47.787Z,17.97
2022-11-30T08:11:49.896Z,18.03
2022-11-30T08:21:51.311Z,18.11
2022-11-30T08:31:52.747Z,18.18
2022-11-30T08:41:54.266Z,18.21
2022-11-30T09:02:17.933Z,18.33
2022-11-30T09:12:19.798Z,18.35
2022-11-30T09:22:21.327Z,18.40
2022-11-30T09:32:22.802Z,18.44
2022-11-30T09:42:51.718Z,18.46
2022-11-30T09:52:58.389Z,18.49
2022-11-30T10:03:02.748Z,18.52
2022-11-30T10:13:11.862Z,18.56
2022-11-30T10:23:25.871Z,18.61
2022-11-30T10:33:35.320Z,18.65
2022-11-30T10:43:56.109Z,18.67
2022-11-30T10:53:57.852Z,18.68
2022-11-30T11:04:18.738Z,18.71
2022-11-30T11:14:22.204Z,18.74
2022-11-30T11:24:26.349Z,18.79
2022-11-30T11:34:32.188Z,18.82
2022-11-30T11:44:33.789Z,18.86
2022-11-30T11:54:49.741Z,18.93
2022-11-30T12:04:52.917Z,18.96
2022-11-30T12:14:55.413Z,19.00
2022-11-30T12:25:19.342Z,19.03
2022-11-30T12:35:29.837Z,19.05
2022-11-30T12:45:40.354Z,19.08
2022-11-30T12:56:03.299Z,19.12
2022-11-30T13:06:14.950Z,19.18
2022-11-30T13:16:16.393Z,19.12
2022-11-30T13:26:51.839Z,19.02
2022-11-30T13:37:01.563Z,18.91
2022-11-30T13:47:15.792Z,18.78
2022-11-30T13:57:29.331Z,18.65
2022-11-30T14:07:35.548Z,18.54
2022-11-30T14:17:37.477Z,18.44
2022-11-30T14:27:38.877Z,18.33
2022-11-30T14:37:45.407Z,18.25
2022-11-30T14:47:50.639Z,18.18
2022-11-30T14:58:15.289Z,18.09
2022-11-30T15:08:16.704Z,17.97
2022-11-30T15:18:19.029Z,17.94
2022-11-30T15:28:31.146Z,17.85
2022-11-30T15:38:32.558Z,17.78
2022-11-30T15:48:37.758Z,17.69
2022-11-30T15:58:45.774Z,17.61
2022-11-30T16:08:47.721Z,17.53
2022-11-30T16:18:49.176Z,17.45
2022-11-30T16:28:50.781Z,17.36
2022-11-30T16:38:52.633Z,17.27
2022-11-30T16:48:54.131Z,17.16
2022-11-30T16:58:55.610Z,17.11
2022-11-30T17:08:56.972Z,17.09
2022-11-30T17:18:58.370Z,17.05
2022-11-30T17:28:59.914Z,17.02
2022-11-30T17:39:07.563Z,16.97
2022-11-30T17:49:09.104Z,16.92
2022-11-30T17:59:10.693Z,16.86
2022-11-30T18:09:12.325Z,16.83
2022-11-30T18:19:14.864Z,16.77
2022-11-30T18:29:16.260Z,16.74
2022-11-30T18:39:17.673Z,16.71
2022-11-30T18:49:21.002Z,16.66
2022-11-30T18:59:22.398Z,16.62
2022-11-30T19:09:24.085Z,16.57
2022-11-30T19:19:25.482Z,16.51
2022-11-30T19:29:26.857Z,16.46
2022-11-30T19:39:28.314Z,16.45
2022-11-30T19:49:29.759Z,16.38
2022-11-30T19:59:32.321Z,16.34
2022-11-30T20:09:33.689Z,16.32
2022-11-30T20:19:35.224Z,16.29
2022-11-30T20:29:36.754Z,16.23
2022-11-30T20:39:42.625Z,16.22
2022-11-30T20:49:47.261Z,16.17
2022-11-30T20:59:48.691Z,16.15
2022-11-30T21:09:50.160Z,16.08
2022-11-30T21:19:51.576Z,16.09
2022-11-30T21:29:53.108Z,16.06
2022-11-30T21:39:54.526Z,16.02
2022-11-30T21:49:56.679Z,16.02
2022-11-30T21:59:58.048Z,16.01
2022-11-30T22:09:59.606Z,15.98
2022-11-30T22:20:01.065Z,16.00
2022-11-30T22:30:02.663Z,15.97
2022-11-30T22:40:04.320Z,15.93
2022-11-30T22:50:06.281Z,15.94
2022-11-30T23:00:08.327Z,15.93
2022-11-30T23:10:09.715Z,15.93
2022-11-30T23:20:11.824Z,15.92
2022-11-30T23:30:13.249Z,15.89
2022-11-30T23:40:14.727Z,15.84
2022-11-30T23:50:16.120Z,15.80
